Terminal Aerodrome Forecast
Issued by NWS

Home | Current Version | Previous Version | Text Only | Print | Product List | Glossary On
Versions: 1 2 3 4 5 6 7 8 9 10 11 12 13 14 15 16
000
FTUS46 KSEW 250144 AAA
TAFPAE
TAF AMD
KPAE 250144Z 2502/2524 17016KT P6SM VCSH FEW020 BKN035 BKN050
      TEMPO 2502/2504 4SM -SHRA BKN020 OVC035
     FM250400 18012KT P6SM VCSH SCT030 BKN045
     FM251200 17010KT P6SM BKN020 BKN045
     FM251800 20010KT P6SM SCT035 BKN045=

USA.gov is the U.S. government's official web portal to all federal, state and local government web resources and services.